Hovedside
METAR-TAF:

METAR-TAF

Lufthavner :

Honningsvåg, Norge

Honningsvåg lufthavn. Valan

breddegrad: 71-01N, lengdegrad: 025-59E, høyde over havet: 1 m

Gjeldene værobservasjon

Denne rapporten ble laget for 11 minutter siden, klokken 08:20 UTC
Vind 13 kt fra Sør med vindkast opp mot 23 kt, skiftende mellom Øst-sørøst og Sørvest
Temperatur -8°C
Luftfuktighet 73%
Trykk 1015 hPa
Sikt 10 km eller mer
Få skyer i en høyde av 1400 ft

METAR: ENHV 220820Z 18013G23KT 120V230 9999 FEW014 M08/M12 Q1015

Tid: 09:31 (08:31 UTC)


TAF: fraværende

Værobservasjoner og værvarsel for over 4000 flyplasser (METAR- og TAF-rapporter).

Tilgjengelige stasjoner er representert av de røde og gule prikkene på kartet.

Hold musepekeren over prikken for å se navnet på stasjonen.

Klikk så for å se værobservasjoner og -varsler.

For å forandre kartet kan du klikke på den grønne knappen med svart kryss for å zoome inn, på den grønne knappen med strek for å zoome ut, eller på de grønne pilene for å se tilstøtende kart.


METAR-TAF: